Port Alsworth, Alaska
Current Conditions -  °F | °C
As of 1:53 AM on Thursday 23 Oct 2014 (Local Time) from PAIL Reporting Station
Clear Clear  
Wind Chill: 21°   Ceiling: Unl
Heat Index: 31°   Visibility: 10mi
Dew Point: 23°   Wind: 14mph
Humidity: 72%   Direction: 340°NNW
Pressure: 29.7"   Gusts: 21mph
Location:  60.2°N, 154.32°W
Report Text: PAIL 230953Z AUTO 34012G18KT 10SM CLR M01/M05 A2970 RMK AO2 SLP061 T10061050 TSNO
Loading
Personal Weather Stations






























Interactive Weather Map
Tropical Storm Tracking
New forecast layout! Learn more

10-Day Weather Forecast

Advertisements
Track Severe Weather on mobile